createdAt,value
2022-11-17T00:00:44.831Z,7.70
2022-11-17T00:03:15.854Z,6.80
2022-11-17T00:05:44.753Z,5.70
2022-11-17T00:08:12.697Z,7.10
2022-11-17T00:10:41.790Z,7.00
2022-11-17T00:13:29.868Z,7.80
2022-11-17T00:15:57.844Z,6.50
2022-11-17T00:18:45.561Z,7.60
2022-11-17T00:21:19.476Z,7.50
2022-11-17T00:23:48.458Z,6.40
2022-11-17T00:26:27.802Z,6.90
2022-11-17T00:29:01.286Z,6.50
2022-11-17T00:31:49.732Z,7.80
2022-11-17T00:34:20.424Z,6.20
2022-11-17T00:36:50.600Z,6.30
2022-11-17T00:39:20.779Z,6.70
2022-11-17T00:41:48.832Z,7.10
2022-11-17T00:44:16.984Z,7.20
2022-11-17T00:46:45.018Z,6.70
2022-11-17T00:49:13.004Z,7.50
2022-11-17T00:51:41.194Z,7.40
2022-11-17T00:54:11.863Z,7.60
2022-11-17T00:56:39.954Z,8.90
2022-11-17T00:59:07.832Z,7.60
2022-11-17T01:01:36.104Z,6.10
2022-11-17T01:04:04.631Z,7.20
2022-11-17T01:06:43.525Z,8.00
2022-11-17T01:09:17.261Z,8.60
2022-11-17T01:11:45.625Z,7.30
2022-11-17T01:14:16.903Z,8.00
2022-11-17T01:16:44.936Z,9.20
2022-11-17T01:19:16.695Z,6.40
2022-11-17T01:21:44.654Z,7.10
2022-11-17T01:24:13.465Z,6.60
2022-11-17T01:26:41.605Z,5.90
2022-11-17T01:29:12.295Z,6.40
2022-11-17T01:31:43.622Z,7.10
2022-11-17T01:34:13.165Z,6.60
2022-11-17T01:37:01.511Z,7.00
2022-11-17T01:39:30.426Z,5.00
2022-11-17T01:41:58.570Z,5.90
2022-11-17T01:44:41.802Z,6.00
2022-11-17T01:47:43.370Z,6.50
2022-11-17T01:50:37.596Z,6.50
2022-11-17T01:53:09.081Z,5.80
2022-11-17T01:55:41.764Z,6.40
2022-11-17T01:58:20.472Z,6.00
2022-11-17T02:00:48.972Z,5.10
2022-11-17T02:03:16.971Z,5.40
2022-11-17T02:06:14.022Z,5.60
2022-11-17T02:08:43.644Z,4.80
2022-11-17T02:11:17.212Z,5.80
2022-11-17T02:13:45.163Z,4.60
2022-11-17T02:16:14.449Z,5.50
2022-11-17T02:18:43.661Z,3.60
2022-11-17T02:21:44.783Z,4.80
2022-11-17T02:24:37.916Z,4.50
2022-11-17T02:27:37.829Z,4.80
2022-11-17T02:30:10.820Z,4.90
2022-11-17T02:32:56.369Z,4.70
2022-11-17T02:36:21.176Z,4.00
2022-11-17T02:38:55.230Z,3.40
2022-11-17T02:41:29.293Z,4.20
2022-11-17T02:44:11.356Z,4.50
2022-11-17T02:46:56.125Z,4.50
2022-11-17T02:49:36.020Z,4.20
2022-11-17T02:52:04.060Z,3.70
2022-11-17T02:54:32.017Z,4.40
2022-11-17T02:56:59.868Z,4.50
2022-11-17T02:59:35.112Z,4.50
2022-11-17T03:02:59.518Z,4.50
2022-11-17T03:05:38.418Z,3.50
2022-11-17T03:08:13.753Z,4.70
2022-11-17T03:10:56.788Z,3.40
2022-11-17T03:14:02.775Z,4.10
2022-11-17T03:16:35.917Z,4.30
2022-11-17T03:19:36.281Z,4.80
2022-11-17T03:22:32.508Z,4.70
2022-11-17T03:25:06.224Z,5.40
2022-11-17T03:27:37.377Z,4.50
2022-11-17T03:30:08.426Z,4.50
2022-11-17T03:32:42.330Z,4.60
2022-11-17T03:35:13.685Z,5.00
2022-11-17T03:37:52.234Z,5.30
2022-11-17T03:40:23.385Z,4.70
2022-11-17T03:42:54.052Z,4.70
2022-11-17T03:45:50.571Z,5.60
2022-11-17T03:48:28.404Z,4.90
2022-11-17T03:51:18.159Z,5.10
2022-11-17T03:53:46.998Z,4.80
2022-11-17T03:56:42.300Z,4.80
2022-11-17T03:59:26.220Z,4.90
2022-11-17T04:01:54.463Z,4.30
2022-11-17T04:04:22.694Z,4.70
2022-11-17T04:06:52.201Z,4.70
2022-11-17T04:09:24.162Z,5.20
2022-11-17T04:12:11.587Z,5.60
2022-11-17T04:14:58.210Z,5.00
2022-11-17T04:17:27.881Z,5.30
2022-11-17T04:19:55.718Z,4.80
2022-11-17T04:22:23.502Z,6.40
2022-11-17T04:24:52.184Z,5.40
2022-11-17T04:27:38.793Z,5.70
2022-11-17T04:30:07.679Z,6.10
2022-11-17T04:32:37.141Z,5.70
2022-11-17T04:35:05.492Z,4.60
2022-11-17T04:37:33.290Z,5.10
2022-11-17T04:40:06.514Z,5.90
2022-11-17T04:42:34.309Z,5.10
2022-11-17T04:45:02.115Z,5.10
2022-11-17T04:47:29.909Z,5.10
2022-11-17T04:49:57.672Z,6.00
2022-11-17T04:52:29.820Z,5.00
2022-11-17T04:54:57.953Z,5.60
2022-11-17T04:57:25.720Z,5.80
2022-11-17T04:59:53.743Z,6.30
2022-11-17T05:02:21.686Z,6.20
2022-11-17T05:04:58.726Z,5.90
2022-11-17T05:07:28.072Z,6.00
2022-11-17T05:09:58.049Z,6.10
2022-11-17T05:12:44.377Z,4.80
2022-11-17T05:15:32.243Z,5.30
2022-11-17T05:18:00.089Z,5.20
2022-11-17T05:20:29.002Z,4.90
2022-11-17T05:23:15.662Z,5.40
2022-11-17T05:25:44.856Z,6.10
2022-11-17T05:28:13.180Z,6.40
2022-11-17T05:30:40.921Z,5.80
2022-11-17T05:33:08.816Z,5.80
2022-11-17T05:35:36.696Z,6.30
2022-11-17T05:38:04.530Z,5.80
2022-11-17T05:40:34.517Z,5.50
2022-11-17T05:43:02.323Z,5.10
2022-11-17T05:45:30.096Z,6.50
2022-11-17T05:48:01.742Z,4.60
2022-11-17T05:50:29.573Z,5.00
2022-11-17T05:53:02.147Z,6.50
2022-11-17T05:55:32.066Z,6.00
2022-11-17T05:58:07.544Z,5.80
2022-11-17T06:00:37.561Z,4.30
2022-11-17T06:03:08.451Z,5.70
2022-11-17T06:05:36.363Z,5.20
2022-11-17T06:08:04.573Z,4.30
2022-11-17T06:10:34.214Z,5.50
2022-11-17T06:13:02.002Z,8.20
2022-11-17T06:15:29.981Z,7.50
2022-11-17T06:18:01.996Z,6.50
2022-11-17T06:20:35.407Z,5.60
2022-11-17T06:23:05.160Z,4.60
2022-11-17T06:25:35.487Z,4.50
2022-11-17T06:28:05.282Z,3.90
2022-11-17T06:30:33.172Z,4.20
2022-11-17T06:33:02.694Z,5.00
2022-11-17T06:35:33.535Z,4.30
2022-11-17T06:38:02.581Z,4.90
2022-11-17T06:40:34.142Z,3.90
2022-11-17T06:43:08.759Z,5.50
2022-11-17T06:45:38.399Z,4.90
2022-11-17T06:48:07.599Z,4.30
2022-11-17T06:50:35.498Z,5.10
2022-11-17T06:53:05.726Z,4.60
2022-11-17T06:55:38.065Z,4.00
2022-11-17T06:58:08.246Z,5.70
2022-11-17T07:00:36.921Z,6.00
2022-11-17T07:03:09.756Z,4.00
2022-11-17T07:05:40.125Z,4.50
2022-11-17T07:08:09.026Z,4.30
2022-11-17T07:10:38.107Z,4.20
2022-11-17T07:13:06.548Z,4.20
2022-11-17T07:15:34.321Z,4.50
2022-11-17T07:18:02.177Z,4.10
2022-11-17T07:20:29.963Z,3.00
2022-11-17T07:23:00.964Z,3.80
2022-11-17T07:25:30.689Z,4.80
2022-11-17T07:28:00.119Z,4.30
2022-11-17T07:30:29.775Z,4.30
2022-11-17T07:33:01.122Z,3.80
2022-11-17T07:35:29.021Z,4.00
2022-11-17T07:38:03.085Z,3.00
2022-11-17T07:40:31.264Z,3.80
2022-11-17T07:42:59.355Z,4.50
2022-11-17T07:45:31.901Z,4.00
2022-11-17T07:48:01.737Z,3.70
2022-11-17T07:50:29.782Z,3.40
2022-11-17T07:52:58.001Z,4.40
2022-11-17T07:55:26.131Z,3.40
2022-11-17T07:58:02.013Z,3.70
2022-11-17T08:00:31.295Z,3.10
2022-11-17T08:03:04.324Z,4.10
2022-11-17T08:05:41.663Z,3.00
2022-11-17T08:08:13.155Z,3.50
2022-11-17T08:10:41.025Z,3.40
2022-11-17T08:13:09.352Z,3.40
2022-11-17T08:15:37.163Z,3.50
2022-11-17T08:18:06.258Z,3.80
2022-11-17T08:20:34.013Z,3.50
2022-11-17T08:23:02.379Z,3.30
2022-11-17T08:25:30.141Z,3.50
2022-11-17T08:27:58.339Z,3.20
2022-11-17T08:30:26.619Z,3.20
2022-11-17T08:32:54.687Z,3.90
2022-11-17T08:35:24.442Z,4.40
2022-11-17T08:37:53.049Z,3.50
2022-11-17T08:40:21.430Z,2.80
2022-11-17T08:43:00.440Z,3.20
2022-11-17T08:45:29.092Z,3.20
2022-11-17T08:47:57.232Z,4.00
2022-11-17T08:50:25.417Z,3.70
2022-11-17T08:52:53.403Z,3.20
2022-11-17T08:55:21.322Z,3.20
2022-11-17T08:57:49.372Z,3.50
2022-11-17T09:00:19.946Z,2.30
2022-11-17T09:02:47.826Z,3.00
2022-11-17T09:05:15.538Z,2.90
2022-11-17T09:07:43.402Z,3.00
2022-11-17T09:10:11.607Z,3.70
2022-11-17T09:12:39.403Z,3.70
2022-11-17T09:15:08.356Z,3.90
2022-11-17T09:17:36.356Z,3.20
2022-11-17T09:20:05.394Z,2.60
2022-11-17T09:22:33.181Z,3.40
2022-11-17T09:25:01.378Z,3.30
2022-11-17T09:27:29.189Z,3.10
2022-11-17T09:29:57.032Z,2.90
2022-11-17T09:32:24.893Z,3.30
2022-11-17T09:34:52.857Z,3.20
2022-11-17T09:37:22.634Z,2.60
2022-11-17T09:39:50.412Z,2.40
2022-11-17T09:42:18.616Z,2.80
2022-11-17T09:45:28.277Z,3.30
2022-11-17T09:48:33.796Z,2.70
2022-11-17T09:50:50.822Z,3.20
2022-11-17T09:54:20.260Z,3.50
2022-11-17T09:56:48.162Z,3.00
2022-11-17T09:59:18.347Z,3.70
2022-11-17T10:01:46.225Z,4.50
2022-11-17T10:04:17.002Z,3.40
2022-11-17T10:06:46.608Z,3.70
2022-11-17T10:09:36.256Z,3.80
2022-11-17T10:12:18.751Z,3.40
2022-11-17T10:14:48.746Z,4.10
2022-11-17T10:17:16.785Z,4.40
2022-11-17T10:19:45.667Z,3.30
2022-11-17T10:22:40.113Z,3.40
2022-11-17T10:25:22.392Z,3.80
2022-11-17T10:27:54.095Z,2.70
2022-11-17T10:30:25.316Z,2.90
2022-11-17T10:32:55.758Z,3.30
2022-11-17T10:35:30.771Z,3.10
2022-11-17T10:38:08.585Z,2.50
2022-11-17T10:40:39.930Z,3.40
2022-11-17T10:43:13.909Z,3.30
2022-11-17T10:46:12.711Z,2.90
2022-11-17T10:48:40.991Z,2.40
2022-11-17T10:51:19.577Z,2.30
2022-11-17T10:54:06.106Z,2.20
2022-11-17T10:56:54.980Z,3.10
2022-11-17T10:59:31.441Z,2.70
2022-11-17T11:02:30.588Z,2.70
2022-11-17T11:05:14.760Z,2.10
2022-11-17T11:08:23.315Z,2.50
2022-11-17T11:11:25.276Z,2.40
2022-11-17T11:14:15.691Z,2.80
2022-11-17T11:16:48.184Z,3.20
2022-11-17T11:19:18.402Z,2.90
2022-11-17T11:22:21.561Z,3.00
2022-11-17T11:25:34.362Z,2.50
2022-11-17T11:28:46.225Z,3.70
2022-11-17T11:31:28.214Z,2.20
2022-11-17T11:34:22.037Z,2.40
2022-11-17T11:36:54.083Z,2.90
2022-11-17T11:39:48.703Z,3.00
2022-11-17T11:42:44.542Z,2.90
2022-11-17T11:45:46.688Z,2.90
2022-11-17T11:48:17.009Z,3.20
2022-11-17T11:50:53.775Z,2.90
2022-11-17T11:53:40.284Z,2.80
2022-11-17T11:56:26.587Z,2.90
2022-11-17T11:59:08.182Z,2.60
2022-11-17T12:01:49.068Z,2.40
2022-11-17T12:04:57.608Z,2.80
2022-11-17T12:08:10.607Z,2.60
2022-11-17T12:10:50.900Z,4.40
2022-11-17T12:13:19.525Z,2.80
2022-11-17T12:15:47.417Z,3.10
2022-11-17T12:18:18.578Z,3.20
2022-11-17T12:21:12.764Z,2.50
2022-11-17T12:24:18.015Z,2.50
2022-11-17T12:26:45.826Z,2.50
2022-11-17T12:29:19.795Z,3.40
2022-11-17T12:31:56.776Z,3.70
2022-11-17T12:34:33.852Z,3.40
2022-11-17T12:37:22.190Z,2.30
2022-11-17T12:39:57.996Z,2.00
2022-11-17T12:42:27.586Z,2.80
2022-11-17T12:44:56.810Z,2.00
2022-11-17T12:47:27.346Z,1.90
2022-11-17T12:50:09.095Z,2.50
2022-11-17T12:53:12.320Z,2.60
2022-11-17T12:56:13.105Z,2.90
2022-11-17T12:59:09.224Z,2.10
2022-11-17T13:02:18.148Z,2.10
2022-11-17T13:04:51.308Z,2.30
2022-11-17T13:07:25.893Z,1.80
2022-11-17T13:09:58.565Z,2.30
2022-11-17T13:12:31.527Z,1.90
2022-11-17T13:15:02.867Z,2.30
2022-11-17T13:17:40.247Z,2.40
2022-11-17T13:20:29.491Z,2.00
2022-11-17T13:23:15.190Z,1.80
2022-11-17T13:25:43.037Z,2.10
2022-11-17T13:28:35.945Z,2.40
2022-11-17T13:31:03.729Z,2.10
2022-11-17T13:33:38.389Z,2.40
2022-11-17T13:36:19.687Z,2.50
2022-11-17T13:38:49.833Z,2.50
2022-11-17T13:41:19.528Z,2.30
2022-11-17T13:43:47.731Z,2.80
2022-11-17T13:46:15.549Z,2.10
2022-11-17T13:48:47.471Z,2.50
2022-11-17T13:51:42.473Z,2.50
2022-11-17T13:54:14.048Z,2.20
2022-11-17T13:56:46.508Z,2.90
2022-11-17T13:59:29.050Z,2.30
2022-11-17T14:02:19.430Z,3.40
2022-11-17T14:05:27.808Z,2.80
2022-11-17T14:07:57.709Z,2.90
2022-11-17T14:10:27.751Z,2.90
2022-11-17T14:13:01.613Z,3.00
2022-11-17T14:15:37.911Z,2.30
2022-11-17T14:18:21.514Z,3.00
2022-11-17T14:20:49.566Z,3.20
2022-11-17T14:23:18.227Z,2.70
2022-11-17T14:25:50.279Z,2.50
2022-11-17T14:28:20.805Z,2.40
2022-11-17T14:30:53.843Z,2.80
2022-11-17T14:33:22.260Z,2.10
2022-11-17T14:35:59.016Z,2.30
2022-11-17T14:38:26.808Z,2.70
2022-11-17T14:40:55.115Z,2.80
2022-11-17T14:43:23.322Z,3.00
2022-11-17T14:45:51.249Z,3.80
2022-11-17T14:48:20.382Z,3.20
2022-11-17T14:50:48.546Z,3.00
2022-11-17T14:53:16.361Z,3.20
2022-11-17T14:55:44.345Z,3.80
2022-11-17T14:58:12.320Z,3.10
2022-11-17T15:00:40.156Z,3.60
2022-11-17T15:03:07.995Z,4.50
2022-11-17T15:05:36.533Z,4.50
2022-11-17T15:08:05.115Z,3.80
2022-11-17T15:10:33.288Z,3.50
2022-11-17T15:13:01.129Z,4.20
2022-11-17T15:15:29.016Z,4.50
2022-11-17T15:17:56.791Z,3.60
2022-11-17T15:20:24.676Z,4.80
2022-11-17T15:22:52.518Z,3.30
2022-11-17T15:25:20.315Z,4.50
2022-11-17T15:27:48.411Z,4.80
2022-11-17T15:30:17.339Z,4.30
2022-11-17T15:32:45.125Z,4.40
2022-11-17T15:35:12.947Z,4.50
2022-11-17T15:37:40.720Z,3.60
2022-11-17T15:40:10.733Z,4.30
2022-11-17T15:42:39.253Z,4.40
2022-11-17T15:45:08.090Z,3.70
2022-11-17T15:47:36.090Z,3.90
2022-11-17T15:50:04.898Z,3.60
2022-11-17T15:52:56.645Z,3.30
2022-11-17T15:55:20.716Z,3.10
2022-11-17T15:57:48.505Z,3.70
2022-11-17T16:00:17.435Z,3.80
2022-11-17T16:02:45.194Z,4.30
2022-11-17T16:05:13.043Z,3.80
2022-11-17T16:07:41.021Z,4.30
2022-11-17T16:10:09.727Z,5.40
2022-11-17T16:12:37.813Z,5.90
2022-11-17T16:15:07.091Z,8.00
2022-11-17T16:17:34.912Z,5.80
2022-11-17T16:20:02.879Z,4.10
2022-11-17T16:22:31.366Z,4.80
2022-11-17T16:24:59.316Z,3.80
2022-11-17T16:27:27.239Z,4.10
2022-11-17T16:29:55.310Z,4.90
2022-11-17T16:32:23.192Z,5.10
2022-11-17T16:34:51.184Z,5.30
2022-11-17T16:37:18.938Z,4.60
2022-11-17T16:39:46.692Z,6.20
2022-11-17T16:42:14.693Z,4.40
2022-11-17T16:44:42.640Z,5.00
2022-11-17T16:47:10.515Z,4.20
2022-11-17T16:49:38.438Z,4.70
2022-11-17T16:52:06.363Z,6.70
2022-11-17T16:54:34.177Z,7.70
2022-11-17T16:57:01.983Z,5.30
2022-11-17T16:59:29.755Z,4.70
2022-11-17T17:01:57.668Z,3.70
2022-11-17T17:04:26.864Z,5.20
2022-11-17T17:06:55.027Z,5.10
2022-11-17T17:09:27.718Z,4.70
2022-11-17T17:11:56.039Z,5.90
2022-11-17T17:14:23.958Z,6.00
2022-11-17T17:16:51.827Z,4.50
2022-11-17T17:19:19.852Z,5.20
2022-11-17T17:21:48.404Z,4.90
2022-11-17T17:24:16.202Z,3.90
2022-11-17T17:26:44.040Z,4.60
2022-11-17T17:29:12.760Z,3.70
2022-11-17T17:31:41.727Z,5.20
2022-11-17T17:34:11.598Z,5.50
2022-11-17T17:36:39.443Z,5.90
2022-11-17T17:39:07.966Z,4.60
2022-11-17T17:41:39.547Z,5.50
2022-11-17T17:44:08.176Z,5.50
2022-11-17T17:46:38.178Z,4.90
2022-11-17T17:49:06.270Z,6.00
2022-11-17T17:51:40.261Z,6.50
2022-11-17T17:54:14.158Z,7.40
2022-11-17T17:56:42.010Z,4.90
2022-11-17T17:59:09.810Z,6.40
2022-11-17T18:01:40.787Z,5.20
2022-11-17T18:04:15.367Z,3.80
2022-11-17T18:06:47.280Z,4.40
2022-11-17T18:09:19.059Z,3.80
2022-11-17T18:11:50.529Z,3.90
2022-11-17T18:14:24.991Z,4.30
2022-11-17T18:16:54.102Z,4.20
2022-11-17T18:19:22.339Z,5.70
2022-11-17T18:21:50.307Z,5.60
2022-11-17T18:24:18.205Z,4.80
2022-11-17T18:26:46.161Z,5.50
2022-11-17T18:29:16.436Z,4.80
2022-11-17T18:31:46.892Z,4.80
2022-11-17T18:34:24.261Z,5.20
2022-11-17T18:36:55.670Z,5.00
2022-11-17T18:39:24.728Z,4.10
2022-11-17T18:41:52.546Z,4.60
2022-11-17T18:44:20.394Z,4.00
2022-11-17T18:46:48.435Z,4.40
2022-11-17T18:49:16.683Z,4.30
2022-11-17T18:51:44.880Z,5.10
2022-11-17T18:54:13.250Z,3.90
2022-11-17T18:56:41.129Z,4.40
2022-11-17T18:59:12.032Z,3.90
2022-11-17T19:01:41.411Z,3.40
2022-11-17T19:04:10.684Z,4.50
2022-11-17T19:06:38.475Z,4.20
2022-11-17T19:09:06.947Z,5.20
2022-11-17T19:11:34.860Z,4.20
2022-11-17T19:14:03.055Z,5.30
2022-11-17T19:16:32.034Z,5.00
2022-11-17T19:18:59.925Z,5.40
2022-11-17T19:21:33.682Z,5.40
2022-11-17T19:24:03.357Z,5.30
2022-11-17T19:26:33.622Z,4.10
2022-11-17T19:29:12.651Z,4.80
2022-11-17T19:31:44.007Z,5.00
2022-11-17T19:34:12.122Z,7.20
2022-11-17T19:36:40.253Z,5.70
2022-11-17T19:39:08.058Z,5.90
2022-11-17T19:41:39.792Z,7.30
2022-11-17T19:44:08.616Z,6.60
2022-11-17T19:46:36.638Z,7.50
2022-11-17T19:49:06.012Z,6.40
2022-11-17T19:51:36.530Z,7.40
2022-11-17T19:54:07.366Z,6.80
2022-11-17T19:56:35.568Z,6.70
2022-11-17T19:59:03.607Z,6.90
2022-11-17T20:01:32.511Z,8.00
2022-11-17T20:04:01.283Z,7.60
2022-11-17T20:06:34.788Z,6.00
2022-11-17T20:09:08.034Z,7.60
2022-11-17T20:11:35.993Z,5.80
2022-11-17T20:14:03.821Z,7.20
2022-11-17T20:16:32.254Z,6.20
2022-11-17T20:19:01.374Z,6.30
2022-11-17T20:21:30.003Z,7.50
2022-11-17T20:23:59.141Z,5.50
2022-11-17T20:26:32.287Z,7.70
2022-11-17T20:29:00.433Z,7.90
2022-11-17T20:31:30.881Z,8.40
2022-11-17T20:34:00.847Z,6.60
2022-11-17T20:36:32.013Z,6.90
2022-11-17T20:39:02.177Z,7.30
2022-11-17T20:41:30.243Z,6.70
2022-11-17T20:43:59.433Z,6.30
2022-11-17T20:46:27.604Z,5.50
2022-11-17T20:48:55.685Z,7.30
2022-11-17T20:51:24.658Z,7.60
2022-11-17T20:53:52.636Z,7.40
2022-11-17T20:56:22.454Z,6.50
2022-11-17T20:58:50.324Z,8.30
2022-11-17T21:01:20.633Z,7.60
2022-11-17T21:03:50.857Z,6.20
2022-11-17T21:06:19.933Z,6.90
2022-11-17T21:08:47.711Z,6.40
2022-11-17T21:11:36.365Z,7.60
2022-11-17T21:14:05.870Z,6.80
2022-11-17T21:16:34.161Z,6.80
2022-11-17T21:19:02.021Z,7.50
2022-11-17T21:21:31.391Z,6.30
2022-11-17T21:23:59.910Z,6.00
2022-11-17T21:26:30.528Z,5.30
2022-11-17T21:29:04.816Z,5.20
2022-11-17T21:31:34.553Z,6.00
2022-11-17T21:34:04.573Z,5.00
2022-11-17T21:36:33.778Z,5.70
2022-11-17T21:39:01.979Z,6.80
2022-11-17T21:41:32.050Z,6.00
2022-11-17T21:44:01.978Z,6.50
2022-11-17T21:46:32.328Z,5.50
2022-11-17T21:49:01.754Z,6.60
2022-11-17T21:51:34.691Z,8.30
2022-11-17T21:54:04.828Z,8.30
2022-11-17T21:56:32.979Z,6.80
2022-11-17T21:59:11.234Z,7.90
2022-11-17T22:01:39.541Z,7.20
2022-11-17T22:04:07.442Z,6.70
2022-11-17T22:06:35.543Z,5.10
2022-11-17T22:09:03.424Z,5.60
2022-11-17T22:11:38.328Z,4.80
2022-11-17T22:14:08.261Z,5.10
2022-11-17T22:16:41.206Z,4.50
2022-11-17T22:19:09.784Z,4.90
2022-11-17T22:21:38.463Z,5.20
2022-11-17T22:24:08.198Z,5.00
2022-11-17T22:26:38.459Z,5.50
2022-11-17T22:29:15.689Z,5.80
2022-11-17T22:31:45.288Z,6.60
2022-11-17T22:34:13.628Z,7.50
2022-11-17T22:36:41.755Z,6.30
2022-11-17T22:39:09.602Z,7.30
2022-11-17T22:41:37.454Z,7.10
2022-11-17T22:44:05.437Z,5.30
2022-11-17T22:46:33.649Z,6.70
2022-11-17T22:49:01.543Z,6.00
2022-11-17T22:51:47.979Z,6.60
2022-11-17T22:54:15.772Z,7.40
2022-11-17T22:56:43.540Z,6.10
2022-11-17T22:59:11.434Z,5.80
2022-11-17T23:01:39.369Z,7.10
2022-11-17T23:04:07.311Z,7.30
2022-11-17T23:06:35.121Z,6.60
2022-11-17T23:09:02.879Z,7.30
2022-11-17T23:11:37.104Z,8.20
2022-11-17T23:14:07.823Z,6.20
2022-11-17T23:16:39.013Z,5.10
2022-11-17T23:19:06.997Z,6.90
2022-11-17T23:21:34.837Z,7.20
2022-11-17T23:24:04.006Z,7.60
2022-11-17T23:26:31.774Z,7.30
2022-11-17T23:28:59.573Z,6.90
2022-11-17T23:31:28.270Z,6.30
2022-11-17T23:33:56.346Z,6.10
2022-11-17T23:36:24.413Z,6.30
2022-11-17T23:38:52.644Z,6.60
2022-11-17T23:41:21.172Z,6.50
2022-11-17T23:43:53.644Z,6.40
2022-11-17T23:46:23.896Z,6.30
2022-11-17T23:48:51.953Z,6.80
2022-11-17T23:51:21.987Z,6.30
2022-11-17T23:53:49.905Z,5.00
2022-11-17T23:56:20.624Z,6.70
2022-11-17T23:58:49.032Z,6.50
